createdAt,value
2023-04-17T00:01:13.187Z,3.40
2023-04-17T00:03:40.965Z,6.60
2023-04-17T00:06:08.612Z,2.25
2023-04-17T00:08:36.390Z,2.70
2023-04-17T00:11:07.766Z,3.28
2023-04-17T00:13:36.504Z,2.13
2023-04-17T00:16:04.006Z,3.03
2023-04-17T00:18:32.385Z,2.75
2023-04-17T00:20:59.906Z,2.40
2023-04-17T00:23:27.408Z,2.15
2023-04-17T00:25:54.880Z,4.47
2023-04-17T00:28:22.474Z,2.38
2023-04-17T00:30:49.993Z,3.30
2023-04-17T00:33:17.621Z,3.38
2023-04-17T00:35:45.123Z,3.63
2023-04-17T00:38:15.600Z,3.42
2023-04-17T00:40:43.637Z,2.92
2023-04-17T00:43:11.899Z,3.03
2023-04-17T00:45:39.669Z,2.70
2023-04-17T00:48:08.186Z,2.05
2023-04-17T00:50:36.630Z,1.92
2023-04-17T00:53:04.484Z,2.28
2023-04-17T00:55:32.633Z,2.50
2023-04-17T00:58:00.764Z,2.70
2023-04-17T01:00:28.254Z,1.65
2023-04-17T01:02:57.449Z,2.72
2023-04-17T01:05:26.149Z,2.00
2023-04-17T01:07:54.864Z,1.60
2023-04-17T01:10:22.495Z,2.05
2023-04-17T01:13:08.430Z,2.42
2023-04-17T01:15:36.479Z,2.10
2023-04-17T01:18:04.292Z,2.13
2023-04-17T01:20:32.730Z,3.45
2023-04-17T01:23:00.427Z,1.92
2023-04-17T01:25:28.538Z,2.08
2023-04-17T01:27:56.273Z,1.33
2023-04-17T01:30:24.122Z,2.10
2023-04-17T01:32:51.774Z,1.95
2023-04-17T01:35:22.270Z,1.88
2023-04-17T01:37:49.906Z,2.40
2023-04-17T01:40:17.612Z,2.22
2023-04-17T01:42:45.170Z,1.17
2023-04-17T01:45:12.673Z,1.85
2023-04-17T01:47:40.229Z,1.73
2023-04-17T01:50:09.720Z,1.65
2023-04-17T01:52:37.388Z,1.35
2023-04-17T01:55:05.211Z,2.08
2023-04-17T01:57:34.283Z,2.13
2023-04-17T02:00:01.906Z,2.92
2023-04-17T02:02:29.485Z,1.00
2023-04-17T02:04:57.042Z,1.17
2023-04-17T02:07:25.122Z,2.60
2023-04-17T02:09:54.091Z,1.25
2023-04-17T02:12:21.998Z,1.75
2023-04-17T02:14:49.423Z,1.13
2023-04-17T02:17:17.221Z,1.33
2023-04-17T02:19:44.718Z,2.25
2023-04-17T02:22:12.174Z,1.13
2023-04-17T02:24:39.657Z,1.48
2023-04-17T02:27:07.546Z,0.90
2023-04-17T02:29:34.985Z,1.23
2023-04-17T02:32:02.561Z,0.82
2023-04-17T02:34:30.039Z,1.38
2023-04-17T02:36:57.463Z,0.50
2023-04-17T02:39:25.316Z,1.95
2023-04-17T02:41:52.994Z,0.80
2023-04-17T02:44:20.475Z,0.50
2023-04-17T02:46:47.969Z,1.02
2023-04-17T02:49:15.439Z,0.75
2023-04-17T02:51:42.915Z,0.70
2023-04-17T02:54:10.388Z,0.70
2023-04-17T02:56:38.597Z,2.03
2023-04-17T02:59:06.295Z,1.13
2023-04-17T03:01:34.825Z,0.50
2023-04-17T03:04:02.759Z,0.98
2023-04-17T03:06:30.869Z,0.90
2023-04-17T03:08:58.484Z,0.40
2023-04-17T03:11:26.016Z,0.65
2023-04-17T03:13:53.620Z,0.57
2023-04-17T03:16:21.381Z,0.63
2023-04-17T03:18:48.889Z,0.70
2023-04-17T03:21:17.008Z,0.52
2023-04-17T03:23:44.721Z,0.85
2023-04-17T03:26:12.454Z,0.80
2023-04-17T03:28:39.878Z,2.42
2023-04-17T03:31:07.361Z,1.00
2023-04-17T03:33:35.109Z,0.30
2023-04-17T03:36:02.686Z,0.50
2023-04-17T03:38:30.303Z,4.18
2023-04-17T03:40:58.115Z,0.63
2023-04-17T03:43:25.709Z,0.30
2023-04-17T03:45:53.160Z,0.85
2023-04-17T03:48:20.704Z,0.88
2023-04-17T03:50:48.946Z,0.50
2023-04-17T03:53:16.427Z,0.98
2023-04-17T03:55:43.975Z,0.70
2023-04-17T03:58:11.819Z,0.60
2023-04-17T04:00:39.434Z,0.57
2023-04-17T04:03:07.143Z,0.40
2023-04-17T04:05:34.929Z,1.10
2023-04-17T04:08:02.756Z,1.25
2023-04-17T04:10:30.299Z,1.17
2023-04-17T04:12:57.802Z,0.88
2023-04-17T04:15:25.262Z,1.25
2023-04-17T04:17:52.791Z,0.70
2023-04-17T04:20:20.440Z,1.02
2023-04-17T04:22:49.503Z,0.80
2023-04-17T04:25:17.957Z,0.75
2023-04-17T04:27:50.359Z,0.75
2023-04-17T04:30:18.088Z,0.63
2023-04-17T04:32:48.582Z,0.65
2023-04-17T04:35:16.510Z,0.85
2023-04-17T04:37:46.982Z,0.75
2023-04-17T04:40:15.703Z,0.60
2023-04-17T04:42:43.337Z,0.93
2023-04-17T04:45:11.314Z,0.85
2023-04-17T04:47:38.987Z,0.57
2023-04-17T04:50:06.914Z,0.80
2023-04-17T04:52:34.484Z,1.10
2023-04-17T04:55:02.438Z,0.60
2023-04-17T04:57:29.899Z,0.60
2023-04-17T04:59:57.422Z,0.65
2023-04-17T05:02:25.020Z,0.80
2023-04-17T05:04:52.871Z,1.42
2023-04-17T05:07:20.472Z,0.50
2023-04-17T05:09:47.928Z,0.65
2023-04-17T05:12:17.589Z,0.50
2023-04-17T05:14:45.146Z,0.40
2023-04-17T05:17:12.588Z,0.55
2023-04-17T05:19:40.008Z,0.50
2023-04-17T05:22:07.570Z,0.85
2023-04-17T05:24:35.164Z,0.43
2023-04-17T05:27:02.896Z,1.02
2023-04-17T05:29:31.248Z,0.73
2023-04-17T05:31:58.878Z,0.80
2023-04-17T05:34:26.769Z,0.82
2023-04-17T05:36:54.341Z,1.20
2023-04-17T05:39:22.321Z,0.63
2023-04-17T05:41:50.604Z,0.50
2023-04-17T05:44:18.097Z,0.43
2023-04-17T05:46:45.885Z,0.40
2023-04-17T05:49:13.606Z,0.60
2023-04-17T05:51:41.251Z,0.68
2023-04-17T05:54:08.884Z,0.70
2023-04-17T05:56:36.362Z,0.50
2023-04-17T05:59:04.021Z,0.98
2023-04-17T06:01:31.829Z,1.15
2023-04-17T06:04:00.423Z,0.65
2023-04-17T06:06:29.509Z,0.43
2023-04-17T06:08:57.415Z,0.50
2023-04-17T06:11:24.956Z,0.47
2023-04-17T06:13:52.836Z,1.38
2023-04-17T06:16:20.426Z,0.75
2023-04-17T06:18:48.209Z,0.68
2023-04-17T06:21:15.945Z,0.50
2023-04-17T06:23:46.430Z,0.60
2023-04-17T06:26:13.857Z,0.63
2023-04-17T06:28:42.467Z,0.98
2023-04-17T06:31:10.277Z,0.40
2023-04-17T06:33:37.836Z,0.93
2023-04-17T06:36:05.569Z,1.55
2023-04-17T06:38:33.078Z,0.90
2023-04-17T06:41:00.502Z,0.45
2023-04-17T06:43:30.839Z,1.15
2023-04-17T06:45:58.378Z,0.70
2023-04-17T06:48:26.354Z,0.52
2023-04-17T06:50:53.850Z,0.73
2023-04-17T06:53:22.426Z,1.45
2023-04-17T06:55:50.156Z,0.98
2023-04-17T06:58:17.680Z,0.73
2023-04-17T07:00:45.128Z,0.73
2023-04-17T07:03:14.516Z,0.60
2023-04-17T07:05:44.638Z,1.00
2023-04-17T07:08:12.126Z,0.95
2023-04-17T07:10:39.679Z,0.57
2023-04-17T07:13:07.604Z,3.13
2023-04-17T07:15:35.123Z,0.70
2023-04-17T07:18:02.915Z,0.95
2023-04-17T07:20:33.729Z,0.60
2023-04-17T07:23:01.534Z,0.60
2023-04-17T07:25:33.267Z,0.98
2023-04-17T07:28:03.270Z,0.80
2023-04-17T07:30:35.153Z,1.00
2023-04-17T07:33:03.195Z,6.20
2023-04-17T07:35:30.896Z,1.38
2023-04-17T07:37:59.929Z,3.53
2023-04-17T07:40:27.762Z,0.70
2023-04-17T07:42:56.812Z,0.70
2023-04-17T07:45:24.571Z,0.90
2023-04-17T07:47:54.785Z,1.23
2023-04-17T07:50:22.427Z,1.42
2023-04-17T07:52:50.097Z,0.70
2023-04-17T07:55:17.733Z,1.10
2023-04-17T07:57:47.457Z,1.15
2023-04-17T08:00:15.798Z,1.25
2023-04-17T08:02:44.342Z,0.68
2023-04-17T08:05:12.269Z,1.63
2023-04-17T08:07:40.785Z,1.02
2023-04-17T08:10:08.483Z,1.45
2023-04-17T08:12:36.353Z,1.05
2023-04-17T08:15:04.204Z,1.05
2023-04-17T08:17:32.159Z,2.65
2023-04-17T08:19:59.852Z,1.60
2023-04-17T08:22:29.360Z,0.80
2023-04-17T08:25:00.468Z,1.15
2023-04-17T08:27:27.949Z,0.93
2023-04-17T08:29:56.012Z,0.90
2023-04-17T08:32:23.672Z,0.73
2023-04-17T08:34:51.578Z,1.13
2023-04-17T08:37:19.218Z,1.38
2023-04-17T08:39:47.342Z,1.13
2023-04-17T08:42:18.876Z,0.60
2023-04-17T08:44:46.850Z,1.60
2023-04-17T08:47:14.564Z,1.40
2023-04-17T08:49:44.242Z,0.93
2023-04-17T08:52:12.033Z,0.90
2023-04-17T08:54:40.402Z,0.77
2023-04-17T08:57:10.859Z,0.82
2023-04-17T08:59:39.922Z,1.15
2023-04-17T09:02:08.832Z,1.08
2023-04-17T09:04:40.729Z,0.50
2023-04-17T09:07:08.941Z,0.98
2023-04-17T09:09:51.625Z,0.93
2023-04-17T09:12:22.834Z,1.45
2023-04-17T09:14:50.604Z,0.60
2023-04-17T09:17:19.372Z,0.75
2023-04-17T09:20:08.141Z,0.80
2023-04-17T09:22:36.723Z,0.80
2023-04-17T09:25:04.780Z,1.38
2023-04-17T09:27:34.936Z,0.70
2023-04-17T09:30:03.880Z,0.77
2023-04-17T09:32:35.185Z,1.98
2023-04-17T09:35:04.446Z,1.27
2023-04-17T09:37:51.211Z,0.50
2023-04-17T09:40:19.408Z,1.00
2023-04-17T09:42:57.013Z,2.45
2023-04-17T09:45:25.255Z,1.25
2023-04-17T09:48:02.347Z,4.30
2023-04-17T09:50:29.993Z,0.60
2023-04-17T09:52:57.552Z,0.90
2023-04-17T09:55:27.513Z,0.80
2023-04-17T09:58:05.396Z,0.80
2023-04-17T10:00:33.109Z,1.83
2023-04-17T10:03:01.033Z,3.80
2023-04-17T10:05:34.859Z,0.73
2023-04-17T10:08:02.444Z,1.45
2023-04-17T10:10:32.879Z,0.45
2023-04-17T10:13:02.792Z,0.95
2023-04-17T10:15:30.608Z,1.40
2023-04-17T10:18:18.225Z,0.70
2023-04-17T10:20:49.037Z,0.88
2023-04-17T10:23:33.028Z,0.80
2023-04-17T10:26:19.820Z,0.50
2023-04-17T10:28:49.086Z,1.08
2023-04-17T10:31:17.632Z,0.88
2023-04-17T10:33:52.245Z,0.80
2023-04-17T10:36:42.709Z,0.43
2023-04-17T10:39:14.185Z,0.57
2023-04-17T10:42:02.188Z,1.38
2023-04-17T10:44:56.409Z,0.85
2023-04-17T10:47:30.668Z,0.50
2023-04-17T10:50:01.985Z,0.85
2023-04-17T10:52:35.498Z,0.60
2023-04-17T10:55:06.184Z,0.75
2023-04-17T10:57:52.193Z,0.63
2023-04-17T11:00:20.264Z,0.77
2023-04-17T11:02:50.960Z,0.70
2023-04-17T11:05:19.025Z,0.90
2023-04-17T11:07:51.475Z,0.55
2023-04-17T11:10:22.209Z,0.65
2023-04-17T11:12:50.475Z,0.50
2023-04-17T11:15:18.695Z,0.60
2023-04-17T11:17:49.514Z,0.70
2023-04-17T11:20:21.444Z,0.40
2023-04-17T11:22:49.084Z,0.95
2023-04-17T11:25:26.806Z,1.88
2023-04-17T11:27:58.537Z,0.73
2023-04-17T11:30:35.950Z,0.80
2023-04-17T11:33:08.263Z,1.20
2023-04-17T11:35:40.270Z,0.98
2023-04-17T11:38:09.350Z,0.68
2023-04-17T11:40:36.825Z,0.70
2023-04-17T11:43:07.626Z,0.73
2023-04-17T11:45:35.503Z,1.05
2023-04-17T11:48:03.644Z,0.82
2023-04-17T11:50:31.838Z,1.17
2023-04-17T11:53:02.876Z,0.95
2023-04-17T11:55:34.128Z,1.10
2023-04-17T11:58:03.584Z,1.25
2023-04-17T12:00:31.337Z,0.80
2023-04-17T12:02:59.965Z,0.82
2023-04-17T12:05:28.393Z,0.82
2023-04-17T12:08:06.340Z,0.70
2023-04-17T12:10:39.577Z,0.70
2023-04-17T12:15:34.367Z,1.08
2023-04-17T12:18:08.925Z,0.77
2023-04-17T12:20:37.370Z,0.85
2023-04-17T12:23:05.520Z,1.00
2023-04-17T12:25:33.746Z,0.77
2023-04-17T12:28:01.661Z,0.80
2023-04-17T12:30:30.015Z,0.73
2023-04-17T12:32:57.654Z,1.15
2023-04-17T12:35:25.151Z,1.45
2023-04-17T12:37:58.291Z,2.50
2023-04-17T12:42:59.875Z,2.05
2023-04-17T12:45:27.567Z,0.98
2023-04-17T12:47:55.439Z,0.93
2023-04-17T12:50:23.293Z,1.77
2023-04-17T12:52:50.947Z,1.30
2023-04-17T12:55:18.400Z,1.50
2023-04-17T12:57:46.873Z,1.65
2023-04-17T13:00:14.570Z,0.80
2023-04-17T13:02:42.499Z,1.33
2023-04-17T13:05:10.217Z,0.80
2023-04-17T13:07:37.878Z,2.00
2023-04-17T13:10:05.490Z,1.95
2023-04-17T13:12:32.968Z,1.08
2023-04-17T13:15:00.842Z,2.67
2023-04-17T13:17:31.535Z,1.67
2023-04-17T13:19:58.995Z,1.83
2023-04-17T13:22:26.558Z,1.20
2023-04-17T13:24:56.494Z,0.95
2023-04-17T13:27:24.284Z,0.95
2023-04-17T13:29:51.962Z,0.88
2023-04-17T13:32:19.555Z,1.23
2023-04-17T13:34:47.157Z,0.63
2023-04-17T13:37:15.518Z,0.93
2023-04-17T13:39:43.187Z,1.02
2023-04-17T13:42:10.864Z,1.00
2023-04-17T13:44:38.233Z,1.40
2023-04-17T13:47:08.394Z,0.80
2023-04-17T13:49:36.377Z,0.80
2023-04-17T13:52:04.398Z,0.95
2023-04-17T13:54:35.229Z,1.77
2023-04-17T13:57:02.932Z,1.38
2023-04-17T13:59:30.685Z,0.80
2023-04-17T14:01:58.414Z,0.80
2023-04-17T14:04:26.198Z,0.65
2023-04-17T14:06:53.833Z,0.98
2023-04-17T14:09:21.623Z,1.05
2023-04-17T14:11:49.210Z,0.75
2023-04-17T14:14:16.730Z,1.88
2023-04-17T14:16:44.288Z,0.70
2023-04-17T14:19:14.657Z,1.35
2023-04-17T14:21:46.212Z,1.77
2023-04-17T14:24:16.725Z,1.08
2023-04-17T14:26:44.226Z,0.70
2023-04-17T14:29:14.419Z,0.43
2023-04-17T14:31:42.270Z,0.70
2023-04-17T14:34:09.968Z,1.08
2023-04-17T14:36:37.508Z,0.65
2023-04-17T14:39:05.078Z,1.15
2023-04-17T14:41:35.037Z,0.68
2023-04-17T14:44:02.839Z,0.60
2023-04-17T14:46:30.354Z,0.55
2023-04-17T14:49:01.810Z,0.50
2023-04-17T14:51:30.689Z,0.57
2023-04-17T14:53:58.787Z,1.33
2023-04-17T14:56:26.645Z,0.40
2023-04-17T14:58:54.156Z,0.65
2023-04-17T15:01:22.021Z,6.30
2023-04-17T15:03:49.889Z,0.70
2023-04-17T15:06:17.764Z,1.92
2023-04-17T15:08:46.949Z,0.60
2023-04-17T15:11:14.586Z,0.40
2023-04-17T15:13:42.202Z,0.95
2023-04-17T15:16:09.993Z,2.42
2023-04-17T15:18:39.816Z,1.10
2023-04-17T15:21:09.957Z,1.00
2023-04-17T15:23:38.071Z,3.15
2023-04-17T15:26:05.610Z,1.75
2023-04-17T15:28:34.576Z,1.10
2023-04-17T15:31:05.373Z,2.17
2023-04-17T15:33:33.628Z,0.82
2023-04-17T15:36:03.435Z,0.85
2023-04-17T15:38:30.930Z,2.42
2023-04-17T15:40:58.554Z,1.17
2023-04-17T15:43:26.405Z,1.33
2023-04-17T15:45:54.235Z,0.98
2023-04-17T15:48:21.710Z,0.70
2023-04-17T15:50:49.212Z,1.48
2023-04-17T15:53:16.864Z,1.00
2023-04-17T15:55:44.637Z,1.23
2023-04-17T15:58:12.102Z,0.50
2023-04-17T16:00:39.704Z,0.98
2023-04-17T16:03:10.581Z,0.70
2023-04-17T16:05:38.256Z,0.65
2023-04-17T16:08:05.871Z,0.43
2023-04-17T16:10:34.664Z,0.50
2023-04-17T16:13:02.152Z,0.77
2023-04-17T16:15:29.762Z,1.20
2023-04-17T16:17:57.169Z,1.58
2023-04-17T16:20:24.728Z,0.70
2023-04-17T16:22:54.310Z,1.20
2023-04-17T16:25:21.903Z,1.15
2023-04-17T16:27:49.347Z,1.38
2023-04-17T16:30:16.948Z,1.25
2023-04-17T16:32:46.121Z,0.82
2023-04-17T16:35:13.923Z,0.80
2023-04-17T16:37:41.479Z,1.33
2023-04-17T16:40:09.946Z,0.80
2023-04-17T16:42:37.401Z,0.82
2023-04-17T16:45:07.423Z,1.92
2023-04-17T16:47:37.789Z,0.80
2023-04-17T16:50:07.563Z,0.68
2023-04-17T16:52:41.220Z,1.23
2023-04-17T16:55:09.203Z,1.00
2023-04-17T16:57:41.312Z,0.80
2023-04-17T17:00:10.116Z,1.08
2023-04-17T17:02:37.814Z,1.08
2023-04-17T17:05:05.492Z,1.20
2023-04-17T17:07:33.024Z,2.05
2023-04-17T17:10:00.800Z,1.30
2023-04-17T17:12:28.306Z,1.35
2023-04-17T17:14:55.768Z,1.08
2023-04-17T17:17:23.268Z,1.70
2023-04-17T17:19:50.775Z,1.38
2023-04-17T17:22:18.297Z,1.00
2023-04-17T17:24:45.980Z,1.00
2023-04-17T17:27:14.924Z,0.77
2023-04-17T17:29:42.588Z,0.70
2023-04-17T17:32:10.222Z,0.63
2023-04-17T17:34:37.668Z,0.77
2023-04-17T17:37:06.002Z,0.93
2023-04-17T17:39:33.464Z,0.50
2023-04-17T17:42:03.754Z,0.60
2023-04-17T17:44:33.160Z,4.10
2023-04-17T17:47:00.635Z,0.90
2023-04-17T17:49:28.218Z,2.45
2023-04-17T17:51:56.158Z,0.68
2023-04-17T17:54:23.592Z,0.70
2023-04-17T17:56:51.032Z,0.60
2023-04-17T17:59:18.774Z,0.95
2023-04-17T18:01:46.279Z,1.30
2023-04-17T18:04:14.330Z,1.85
2023-04-17T18:06:42.124Z,1.02
2023-04-17T18:09:09.583Z,0.60
2023-04-17T18:11:37.489Z,1.15
2023-04-17T18:14:04.982Z,1.65
2023-04-17T18:16:33.472Z,1.27
2023-04-17T18:19:03.952Z,1.35
2023-04-17T18:21:32.144Z,1.20
2023-04-17T18:23:59.813Z,2.03
2023-04-17T18:26:27.422Z,3.08
2023-04-17T18:28:54.888Z,1.17
2023-04-17T18:31:23.613Z,2.47
2023-04-17T18:33:51.491Z,2.92
2023-04-17T18:36:19.328Z,1.35
2023-04-17T18:38:46.863Z,1.77
2023-04-17T18:41:14.352Z,1.30
2023-04-17T18:43:41.843Z,2.40
2023-04-17T18:46:09.350Z,1.92
2023-04-17T18:48:37.005Z,1.95
2023-04-17T18:51:15.134Z,1.40
2023-04-17T18:53:42.652Z,1.20
2023-04-17T18:56:11.405Z,1.38
2023-04-17T18:58:40.816Z,1.83
2023-04-17T19:01:12.917Z,1.67
2023-04-17T19:03:40.591Z,1.73
2023-04-17T19:06:08.090Z,1.50
2023-04-17T19:08:36.142Z,3.03
2023-04-17T19:11:04.162Z,1.15
2023-04-17T19:13:31.693Z,1.30
2023-04-17T19:15:59.188Z,6.57
2023-04-17T19:18:26.729Z,2.35
2023-04-17T19:20:54.251Z,1.35
2023-04-17T19:23:21.934Z,2.50
2023-04-17T19:25:56.022Z,6.10
2023-04-17T19:28:23.819Z,1.35
2023-04-17T19:30:51.306Z,2.20
2023-04-17T19:33:19.903Z,2.00
2023-04-17T19:35:47.643Z,4.53
2023-04-17T19:38:16.957Z,3.15
2023-04-17T19:40:47.836Z,6.70
2023-04-17T19:43:15.436Z,4.13
2023-04-17T19:45:44.484Z,2.08
2023-04-17T19:48:12.209Z,1.05
2023-04-17T19:50:39.651Z,1.23
2023-04-17T19:53:07.096Z,3.30
2023-04-17T19:55:34.605Z,3.55
2023-04-17T19:58:02.083Z,3.67
2023-04-17T20:00:29.449Z,14.27
2023-04-17T20:02:57.193Z,14.55
2023-04-17T20:05:24.774Z,10.80
2023-04-17T20:07:52.243Z,12.15
2023-04-17T20:10:20.060Z,8.15
2023-04-17T20:12:47.607Z,11.65
2023-04-17T20:15:15.361Z,3.42
2023-04-17T20:17:43.645Z,4.85
2023-04-17T20:20:14.769Z,5.45
2023-04-17T20:22:42.420Z,3.28
2023-04-17T20:25:10.064Z,6.75
2023-04-17T20:27:37.799Z,2.55
2023-04-17T20:30:06.224Z,1.80
2023-04-17T20:32:33.798Z,2.05
2023-04-17T20:35:02.287Z,3.03
2023-04-17T20:37:29.889Z,4.70
2023-04-17T20:39:57.324Z,1.10
2023-04-17T20:42:24.765Z,3.17
2023-04-17T20:44:52.258Z,2.35
2023-04-17T20:47:19.786Z,3.60
2023-04-17T20:49:47.405Z,1.75
2023-04-17T20:52:14.918Z,2.80
2023-04-17T20:54:42.835Z,4.03
2023-04-17T20:57:11.130Z,7.68
2023-04-17T20:59:38.585Z,3.25
2023-04-17T21:02:06.457Z,5.55
2023-04-17T21:04:34.189Z,4.90
2023-04-17T21:07:02.121Z,1.92
2023-04-17T21:09:29.561Z,1.77
2023-04-17T21:11:57.075Z,1.95
2023-04-17T21:14:24.930Z,1.60
2023-04-17T21:16:55.505Z,2.47
2023-04-17T21:19:25.057Z,1.58
2023-04-17T21:21:53.927Z,1.25
2023-04-17T21:24:22.178Z,0.90
2023-04-17T21:26:49.831Z,1.95
2023-04-17T21:29:17.487Z,17.88
2023-04-17T21:31:45.226Z,13.98
2023-04-17T21:34:13.137Z,12.85
2023-04-17T21:36:40.733Z,20.65
2023-04-17T21:39:08.196Z,10.70
2023-04-17T21:41:35.733Z,19.02
2023-04-17T21:44:04.567Z,9.90
2023-04-17T21:46:32.100Z,4.07
2023-04-17T21:48:59.556Z,6.80
2023-04-17T21:51:27.060Z,4.22
2023-04-17T21:53:54.466Z,6.43
2023-04-17T21:56:24.616Z,4.05
2023-04-17T21:58:52.346Z,1.95
2023-04-17T22:01:20.016Z,1.75
2023-04-17T22:03:47.933Z,1.95
2023-04-17T22:06:15.493Z,2.58
2023-04-17T22:08:43.077Z,2.95
2023-04-17T22:11:10.607Z,2.47
2023-04-17T22:13:38.042Z,2.00
2023-04-17T22:16:05.632Z,2.78
2023-04-17T22:18:33.210Z,1.85
2023-04-17T22:21:00.684Z,2.22
2023-04-17T22:23:28.323Z,3.17
2023-04-17T22:25:55.849Z,4.95
2023-04-17T22:28:23.758Z,3.13
2023-04-17T22:30:52.776Z,7.65
2023-04-17T22:33:20.539Z,12.02
2023-04-17T22:35:47.982Z,7.30
2023-04-17T22:38:15.443Z,8.80
2023-04-17T22:40:43.458Z,6.10
2023-04-17T22:43:13.112Z,5.07
2023-04-17T22:45:40.600Z,1.33
2023-04-17T22:48:08.137Z,1.67
2023-04-17T22:50:38.517Z,0.80
2023-04-17T22:53:06.482Z,2.88
2023-04-17T22:55:34.266Z,1.65
2023-04-17T22:58:02.580Z,0.93
2023-04-17T23:00:31.115Z,2.08
2023-04-17T23:03:01.032Z,1.50
2023-04-17T23:05:28.800Z,2.05
2023-04-17T23:07:56.363Z,1.55
2023-04-17T23:10:24.031Z,11.00
2023-04-17T23:12:51.611Z,14.05
2023-04-17T23:15:20.337Z,5.97
2023-04-17T23:17:48.054Z,13.10
2023-04-17T23:20:15.721Z,11.15
2023-04-17T23:22:43.329Z,2.45
2023-04-17T23:25:10.992Z,3.60
2023-04-17T23:27:38.519Z,8.93
2023-04-17T23:30:06.401Z,6.43
2023-04-17T23:32:35.668Z,4.05
2023-04-17T23:35:03.133Z,6.35
2023-04-17T23:37:30.936Z,4.53
2023-04-17T23:39:58.549Z,5.72
2023-04-17T23:42:26.029Z,2.28
2023-04-17T23:44:55.858Z,2.55
2023-04-17T23:47:23.448Z,2.13
2023-04-17T23:49:51.141Z,2.83
2023-04-17T23:52:20.518Z,3.55
2023-04-17T23:54:48.070Z,5.05
2023-04-17T23:57:15.650Z,3.58
2023-04-17T23:59:43.113Z,3.40
